Terminal Aerodrome Forecast
Issued by NWS

Home | Current Version | Previous Version | Text Only | Print | Product List | Glossary On
Versions: 1 2 3 4 5 6 7 8 9 10 11 12 13 14 15 16 17 18 19 20 21
000
FTUS42 KGSP 312100 AAA
TAFGMU
TAF AMD
KGMU 312107Z 3121/0118 04010KT P6SM VCSH OVC060
     FM312300 05008KT P6SM -SHRA OVC045
      TEMPO 3123/0101 2SM +SHRA SCT008 BKN019 OVC040
     FM010900 03006KT 2SM -SHRA BR OVC016
     FM011400 07005KT P6SM -SHRA OVC019=

USA.gov is the U.S. government's official web portal to all federal, state and local government web resources and services.